Time;durP1;ratioP1;P1;durP2;ratioP2;P2;SDS_P1;SDS_P2;PMS_P1;PMS_P2;Temp;Humidity;BMP_temperature;BMP_pressure;BME280_temperature;BME280_humidity;BME280_pressure;Samples;Min_cycle;Max_cycle;Signal;HPM_P1;HPM_P2
2021/11/01 00:03:47;;;;;;;0.67;0.67;;;18.40;99.90;;;;;;20649962;28;20237;-68
2021/11/01 00:13:52;;;;;;;1.80;1.13;;;18.30;99.90;;;;;;20651716;28;20628;-70
2021/11/01 00:23:56;;;;;;;0.70;0.70;;;18.00;99.90;;;;;;20630467;28;20227;-70
2021/11/01 00:34:01;;;;;;;0.50;0.50;;;18.00;99.90;;;;;;20652690;28;20649;-69
2021/11/01 00:44:05;;;;;;;0.20;0.20;;;17.70;99.90;;;;;;20641402;28;20270;-69
2021/11/01 00:54:11;;;;;;;2.53;0.43;;;17.70;99.90;;;;;;20632091;28;20235;-69
2021/11/01 01:04:16;;;;;;;0.20;0.20;;;17.40;99.90;;;;;;20592718;23;20262;-89
2021/11/01 01:14:26;;;;;;;1.47;1.13;;;17.50;99.90;;;;;;20505016;29;20718;-86
2021/11/01 01:24:30;;;;;;;0.70;0.70;;;17.60;99.90;;;;;;20505881;28;20246;-87
2021/11/01 01:34:35;;;;;;;1.30;1.20;;;17.40;99.90;;;;;;20515890;29;20280;-86
2021/11/01 01:44:38;;;;;;;0.20;0.20;;;17.40;99.90;;;;;;20514795;29;20307;-87
2021/11/01 01:54:44;;;;;;;0.83;0.83;;;17.50;99.90;;;;;;20520123;29;20185;-86
2021/11/01 02:04:47;;;;;;;0.20;0.00;;;17.50;99.90;;;;;;20513059;29;20335;-89
2021/11/01 02:14:57;;;;;;;0.20;0.00;;;17.50;99.90;;;;;;20495308;29;20201;-85
2021/11/01 02:25:05;;;;;;;0.20;0.10;;;17.40;99.90;;;;;;20509935;29;20625;-83
2021/11/01 02:35:14;;;;;;;0.20;0.00;;;17.60;99.90;;;;;;20509746;28;20214;-84
2021/11/01 02:45:17;;;;;;;0.20;0.00;;;17.90;99.90;;;;;;20510457;29;20269;-81
2021/11/01 02:55:22;;;;;;;0.20;0.00;;;17.80;99.90;;;;;;20522250;29;20277;-84
2021/11/01 03:05:28;;;;;;;0.20;0.00;;;18.00;99.90;;;;;;20598973;29;20236;-87
2021/11/01 03:15:33;;;;;;;0.20;0.00;;;18.00;99.90;;;;;;20546887;29;20205;-84
2021/11/01 03:25:43;;;;;;;0.20;0.00;;;18.30;99.90;;;;;;20491098;29;20224;-84
2021/11/01 03:35:49;;;;;;;0.20;0.00;;;18.20;99.90;;;;;;20504576;29;20641;-84
2021/11/01 03:45:53;;;;;;;0.20;0.00;;;18.20;99.90;;;;;;20481988;28;20246;-83
2021/11/01 03:55:58;;;;;;;0.20;0.00;;;18.30;99.90;;;;;;20502883;29;20809;-86
2021/11/01 04:06:03;;;;;;;0.20;0.03;;;18.30;99.90;;;;;;20504056;29;20233;-86
2021/11/01 04:16:12;;;;;;;0.20;0.00;;;18.20;99.90;;;;;;20500651;29;20225;-84
2021/11/01 04:26:19;;;;;;;0.60;0.53;;;18.10;99.90;;;;;;20484815;29;20223;-85
2021/11/01 04:36:29;;;;;;;0.20;0.00;;;18.00;99.90;;;;;;20506376;29;20262;-85
2021/11/01 04:56:55;;;;;;;0.20;0.20;;;18.00;99.90;;;;;;20497691;28;20280;-82
2021/11/01 05:07:01;;;;;;;3.07;0.87;;;18.00;99.90;;;;;;20497816;29;20244;-80
2021/11/01 05:17:26;;;;;;;0.20;0.10;;;17.90;99.90;;;;;;20497244;29;20283;-80
2021/11/01 05:27:46;;;;;;;0.20;0.00;;;17.60;99.90;;;;;;20495783;29;20705;-81
2021/11/01 05:37:51;;;;;;;0.20;0.10;;;17.50;99.90;;;;;;20495857;29;20284;-80
2021/11/01 05:47:58;;;;;;;0.20;0.00;;;17.40;99.90;;;;;;20497352;29;20559;-82
2021/11/01 05:58:10;;;;;;;0.20;0.10;;;17.50;99.90;;;;;;20511676;29;20197;-86
2021/11/01 06:08:26;;;;;;;0.20;0.10;;;17.50;99.90;;;;;;20508661;28;20279;-85
2021/11/01 06:18:36;;;;;;;0.30;0.23;;;17.10;99.90;;;;;;20499069;29;20204;-86
2021/11/01 06:28:42;;;;;;;0.20;0.10;;;16.80;99.90;;;;;;20513403;29;20311;-87
2021/11/01 06:39:19;;;;;;;0.20;0.10;;;16.90;99.90;;;;;;20510969;29;20204;-83
2021/11/01 07:20:48;;;;;;;0.20;0.10;;;17.00;99.90;;;;;;20510311;28;20251;-83
2021/11/01 08:22:51;;;;;;;0.20;0.00;;;18.10;99.90;;;;;;20538789;28;20212;-84
2021/11/01 09:04:15;;;;;;;0.20;0.10;;;19.40;99.90;;;;;;20483790;29;20248;-86
2021/11/01 09:24:45;;;;;;;0.20;0.10;;;19.70;99.90;;;;;;20501476;29;20262;-84
2021/11/01 09:45:12;;;;;;;0.20;0.10;;;20.40;99.90;;;;;;20501992;28;20274;-80
2021/11/01 09:55:37;;;;;;;0.20;0.10;;;21.00;99.90;;;;;;20514616;29;20197;-79
2021/11/01 10:05:44;;;;;;;0.20;0.00;;;21.50;99.90;;;;;;20516206;29;20323;-87
2021/11/01 10:26:19;;;;;;;0.20;0.00;;;21.50;99.90;;;;;;20516411;29;20228;-92
2021/11/01 10:36:28;;;;;;;0.20;0.00;;;22.50;99.90;;;;;;20516326;29;20200;-86
2021/11/01 11:18:10;;;;;;;0.20;0.10;;;20.60;99.90;;;;;;20509481;29;20197;-80
2021/11/01 11:49:35;;;;;;;0.20;0.00;;;23.00;99.90;;;;;;20504126;29;20310;-78
2021/11/01 11:59:39;;;;;;;0.20;0.00;;;23.50;99.90;;;;;;20506291;29;20288;-84
2021/11/01 12:09:55;;;;;;;0.20;0.10;;;23.30;99.90;;;;;;20502224;28;20238;-86
2021/11/01 12:20:01;;;;;;;0.20;0.10;;;23.30;99.90;;;;;;20498235;29;20193;-76
2021/11/01 12:30:10;;;;;;;0.20;0.00;;;24.50;99.90;;;;;;20497105;29;20225;-79
2021/11/01 12:40:24;;;;;;;0.20;0.00;;;25.90;99.90;;;;;;20508764;29;20224;-86
2021/11/01 13:00:52;;;;;;;0.20;0.00;;;25.90;99.90;;;;;;20502793;29;20799;-87
2021/11/01 13:11:01;;;;;;;0.20;0.00;;;26.30;99.90;;;;;;20521257;28;20538;-82
2021/11/01 13:21:14;;;;;;;0.20;0.00;;;23.00;99.90;;;;;;20509800;28;20288;-76
2021/11/01 13:41:47;;;;;;;0.20;0.00;;;25.00;99.90;;;;;;20495650;29;20212;-89
2021/11/01 13:51:52;;;;;;;0.20;0.00;;;22.30;99.90;;;;;;20515679;29;20608;-83
2021/11/01 14:12:45;;;;;;;0.20;0.00;;;23.10;99.90;;;;;;20519504;28;20314;-80
2021/11/01 16:27:30;;;;;;;0.20;0.10;;;20.30;99.90;;;;;;20539671;28;20255;-68
2021/11/01 16:37:40;;;;;;;0.20;0.10;;;20.40;99.90;;;;;;20541650;28;20188;-68
2021/11/01 16:47:47;;;;;;;0.20;0.07;;;20.30;99.90;;;;;;20543260;28;20335;-69
2021/11/01 16:57:56;;;;;;;0.20;0.10;;;19.80;99.90;;;;;;20575086;28;20200;-69
2021/11/01 17:28:54;;;;;;;0.20;0.10;;;19.10;99.90;;;;;;20573717;28;20672;-68
2021/11/01 18:41:39;;;;;;;0.20;0.10;;;18.30;99.90;;;;;;20438272;29;20698;-68
2021/11/01 18:51:51;;;;;;;0.20;0.10;;;18.30;99.90;;;;;;20405660;29;20240;-68
2021/11/01 19:02:08;;;;;;;0.20;0.10;;;18.30;99.90;;;;;;20440852;28;20228;-68
2021/11/01 20:04:42;;;;;;;0.20;0.10;;;15.40;99.90;;;;;;20559122;28;20267;-68
2021/11/01 21:27:44;;;;;;;0.20;0.10;;;13.40;99.90;;;;;;20457592;28;20304;-69
2021/11/01 21:37:49;;;;;;;0.20;0.10;;;13.20;99.90;;;;;;20474398;28;20673;-69
2021/11/01 21:47:53;;;;;;;0.20;0.10;;;13.40;99.90;;;;;;20508498;28;20716;-69
2021/11/01 21:58:04;;;;;;;0.20;0.00;;;13.70;99.90;;;;;;20463761;28;20209;-71
2021/11/01 22:18:33;;;;;;;0.20;0.10;;;14.80;99.90;;;;;;20503681;29;20228;-68
2021/11/01 22:39:16;;;;;;;0.20;0.10;;;15.30;99.90;;;;;;20470444;29;20228;-68
2021/11/01 22:59:43;;;;;;;0.20;0.10;;;15.30;99.90;;;;;;20469086;29;20681;-69
2021/11/01 23:40:55;;;;;;;0.20;0.07;;;15.20;99.90;;;;;;20470223;28;20602;-68
2021/11/01 23:51:00;;;;;;;0.20;0.00;;;15.20;99.90;;;;;;20501526;28;20312;-69
